Daily Summary

Last 30 Days

Daily Data | Pacific/Honolulu
as of 6/21/21 7:18 AM HST
Date Daily Max Temp (°F) Time of Max Temp Daily Min Temp (°F) Time of Min Temp Daily Rain (In) Seasonal Rainfall (In) Wind Spd (mph) Daily Max Wind (mph) Time of Max Wind Max Wind Dir (°) Daily Solar Rad (Cal/cm2) Daily ETo (in) Dew Pt (°F) Max RH (%) Min RH (%) Max Press (inHg) Time of Max Press Min Press (inHg) Time of Min Press Bat Volt Min Day (V)
6/20/21 82.2 1340 72.4 0147 0.02 19.24 6.0 21.3 1123 NE | 44 598 0.210 66.7 84 56 30.14 2228 30.02 0251 12.7
6/19/21 83.7 1413 73.8 2359 0.01 19.22 6.0 23.1 1532 NE | 36 598 0.214 66.2 79 57 30.09 2226 29.98 1532 12.8
6/18/21 83.3 1351 75.3 0429 0.00 19.21 7.8 22.4 0028 NNE | 28 665 0.244 65.9 76 52 30.10 0008 30.00 1631 12.8
6/17/21 83.2 1415 73.7 0439 0.03 19.21 6.7 23.5 1541 NNE | 27 613 0.219 67.9 87 56 30.12 0910 30.02 1541 12.8
6/16/21 84.4 1153 75.0 0116 0.00 19.18 6.4 24.8 1248 NNE | 19 683 0.248 66.5 83 50 30.13 0932 30.03 1537 12.8
6/15/21 82.3 1338 74.9 0235 0.00 19.18 7.1 29.1 1230 NE | 49 623 0.221 66.8 76 58 30.15 2219 30.05 1458 12.7
6/14/21 83.2 1119 74.9 0559 0.00 19.18 7.2 26.8 1628 NNE | 29 601 0.228 64.5 77 47 30.17 2219 30.06 1701 12.8
6/13/21 81.1 1247 73.3 0052 0.00 19.18 8.0 26.1 1255 NE | 43 642 0.229 65.3 78 56 30.18 0848 30.08 0311 12.8
6/12/21 82.8 1424 73.8 0351 0.04 19.18 7.7 26.1 1228 NNE | 23 640 0.234 66.1 84 52 30.17 0947 30.06 1712 12.8
6/11/21 80.1 1414 72.3 0434 0.10 19.14 6.3 20.8 1633 NNE | 20 414 0.147 68.4 88 66 30.22 2259 30.09 1627 12.8
6/10/21 82.3 1323 74.5 2224 0.02 19.04 9.2 28.4 1555 NNE | 26 551 0.210 67.3 83 58 30.24 2259 30.12 1706 12.7
6/9/21 82.6 1313 75.0 0152 0.00 19.02 8.8 29.3 1646 NNE | 29 637 0.240 66.0 77 57 30.23 2237 30.10 0337 12.8
6/8/21 83.2 0945 74.8 0250 0.01 19.02 9.4 34.1 1248 NNE | 28 650 0.243 66.7 78 58 30.16 2354 30.06 1648 12.7
6/7/21 82.7 1328 75.4 0428 0.00 19.01 7.9 24.1 1054 NE | 45 616 0.226 66.6 75 57 30.14 2333 30.05 1720 12.8
6/6/21 81.4 1233 73.4 0245 0.00 19.01 7.8 28.7 1407 NNE | 29 553 0.208 65.9 78 56 30.12 2324 30.01 1557 12.8
6/5/21 82.9 1443 75.9 0154 0.00 19.01 7.9 25.8 1811 NNE | 14 642 0.237 66.3 71 59 30.12 2157 30.02 1545 12.8
6/4/21 83.8 1218 74.0 0310 0.01 19.01 6.7 26.4 1340 NNE | 33 665 0.238 67.5 88 54 30.10 2223 29.98 0345 12.8
6/3/21 84.1 1501 74.2 1915 0.24 19.00 7.1 26.5 1236 NNE | 23 568 0.208 68.0 89 56 30.09 0929 29.97 1618 12.8
6/2/21 84.5 1420 76.2 0442 0.00 18.76 7.0 23.1 2228 NE | 34 665 0.243 67.5 77 57 30.12 0001 30.01 1658 12.7
6/1/21 86.8 1209 76.3 0524 0.00 18.76 5.7 23.0 1452 ENE | 60 685 0.247 68.3 77 49 30.16 0002 30.05 1719 12.7
5/31/21 88.5 1324 70.7 0518 0.00 18.76 3.2 12.4 1415 SW | 231 676 0.235 66.9 84 46 30.17 2301 30.02 0250 12.8
5/30/21 84.3 1343 71.0 0435 0.00 18.76 3.8 14.1 1439 S | 188 582 0.195 67.8 89 54 30.09 2249 30.00 0353 12.7
5/29/21 84.9 1357 72.5 2357 0.00 18.76 4.0 15.0 1318 S | 180 572 0.196 66.7 85 50 30.09 0001 29.97 1637 12.8
5/28/21 83.5 1131 74.8 0544 0.00 18.76 6.8 22.2 1941 NE | 36 626 0.232 65.7 77 52 30.12 0006 29.98 1715 12.7
5/27/21 84.5 1234 75.4 0510 0.00 18.76 6.4 19.9 1757 NNE | 31 640 0.231 67.2 77 56 30.16 0001 30.06 1623 12.8
5/26/21 85.1 1423 74.5 0219 0.00 18.76 5.9 21.3 1252 NNE | 31 674 0.236 67.6 81 53 30.18 2257 30.07 1704 12.8
5/25/21 86.3 1333 72.1 0525 0.00 18.76 4.2 20.2 1424 NE | 44 598 0.210 68.5 86 55 30.18 2227 30.08 0502 12.8
5/24/21 82.6 1212 71.2 0558 0.00 18.76 3.4 15.1 1330 SW | 221 419 0.143 69.8 89 68 30.15 2313 30.00 0442 12.8
5/23/21 83.2 1409 71.0 0629 0.00 18.76 4.2 17.4 1438 NNE | 23 416 0.149 68.2 87 60 30.11 0001 29.98 1627 12.8
5/22/21 82.1 1517 72.9 0728 0.00 18.76 7.6 24.1 1358 NNE | 31 630 0.223 65.7 81 56 30.13 0829 30.02 1629 12.8
Max 88.5 - 76.3 - 0.24 - 9.4 34.1 - - 685 0.248 69.8 89 68 30.24 - 30.12 - 12.8
Avg - - - - - - 6.5 - - - - - 66.9 - - - - - - -
Min 80.1 - 70.7 - 0.00 - 3.2 12.4 - - 414 0.143 64.5 71 46 30.09 - 29.97 - 12.7